Time;durP1;ratioP1;P1;durP2;ratioP2;P2;SDS_P1;SDS_P2;PMS_P1;PMS_P2;Temp;Humidity;BMP_temperature;BMP_pressure;BME280_temperature;BME280_humidity;BME280_pressure;Samples;Min_cycle;Max_cycle;Signal;HPM_P1;HPM_P2
2023/08/20 00:01:13;;;;;;;0.00;0.00;;;;;;;24.20;69.57;97866.47;5061073;28;20579;-73
2023/08/20 00:03:43;;;;;;;0.10;0.10;;;;;;;24.13;69.47;97877.69;5059828;28;20045;-74
2023/08/20 00:06:11;;;;;;;0.22;0.22;;;;;;;24.07;69.39;97868.69;5057970;28;20497;-74
2023/08/20 00:08:39;;;;;;;0.10;0.00;;;;;;;24.18;68.51;97871.41;5059627;28;20052;-74
2023/08/20 00:11:09;;;;;;;0.17;0.10;;;;;;;24.15;68.46;97876.31;5059761;28;20044;-74
2023/08/20 00:13:37;;;;;;;0.10;0.10;;;;;;;24.16;68.49;97871.69;5056116;28;20047;-74
2023/08/20 00:16:05;;;;;;;0.10;0.10;;;;;;;24.19;68.23;97865.66;5059206;28;20478;-74
2023/08/20 00:18:33;;;;;;;0.10;0.10;;;;;;;24.17;68.59;97867.88;5056940;28;20047;-74
2023/08/20 00:21:05;;;;;;;;;;;;;;;24.20;68.24;97877.38;5057825;28;20044;-74
2023/08/20 00:23:33;;;;;;;0.10;0.10;;;;;;;24.12;68.65;97874.13;5059945;28;19920;-74
2023/08/20 00:26:02;;;;;;;0.00;0.00;;;;;;;24.14;68.43;97873.88;5059986;28;20041;-74
2023/08/20 00:28:33;;;;;;;0.10;0.10;;;;;;;24.12;68.60;97878.78;5058524;28;20051;-74
2023/08/20 00:31:02;;;;;;;0.05;0.05;;;;;;;24.07;68.30;97884.25;5058958;28;20501;-74
2023/08/20 00:33:29;;;;;;;0.00;0.00;;;;;;;24.02;68.78;97878.78;5061803;28;20110;-74
2023/08/20 00:35:57;;;;;;;0.00;0.00;;;;;;;24.00;69.05;97884.50;5063649;28;20044;-74
2023/08/20 00:38:25;;;;;;;0.10;0.10;;;;;;;24.00;69.37;97879.06;5061576;28;20044;-73
2023/08/20 00:40:52;;;;;;;0.10;0.10;;;;;;;24.07;68.97;97881.53;5062369;28;20628;-74
2023/08/20 00:43:21;;;;;;;0.10;0.10;;;;;;;24.08;69.13;97880.44;5062714;28;20510;-74
2023/08/20 00:45:50;;;;;;;0.20;0.20;;;;;;;24.12;68.77;97882.31;5062579;28;20041;-74
2023/08/20 00:48:18;;;;;;;0.10;0.10;;;;;;;24.08;69.25;97883.16;5060701;28;20477;-75
2023/08/20 00:50:46;;;;;;;0.08;0.08;;;;;;;24.06;69.19;97880.69;5063017;28;20448;-73
2023/08/20 00:53:16;;;;;;;0.10;0.10;;;;;;;24.03;69.25;97883.16;5061975;28;20052;-74
2023/08/20 00:55:44;;;;;;;0.00;0.00;;;;;;;24.05;69.93;97892.69;5061560;28;20137;-74
2023/08/20 00:58:12;;;;;;;0.00;0.00;;;;;;;23.95;70.48;97897.34;5078774;28;20131;-73
2023/08/20 01:00:41;;;;;;;0.00;0.00;;;;;;;23.89;70.36;97903.88;5062932;28;20067;-74
2023/08/20 01:03:10;;;;;;;0.05;0.05;;;;;;;23.82;71.09;97900.59;5061149;28;20060;-74
2023/08/20 01:05:42;;;;;;;0.20;0.10;;;;;;;23.78;71.34;97901.13;5063259;28;20055;-74
2023/08/20 01:08:22;;;;;;;0.10;0.10;;;;;;;23.83;71.59;97904.97;5063382;28;20563;-73
2023/08/20 01:10:56;;;;;;;0.10;0.10;;;;;;;23.93;70.99;97905.78;5065415;28;20468;-74
2023/08/20 01:13:24;;;;;;;0.10;0.10;;;;;;;23.90;70.78;97897.31;5060419;28;20040;-74
2023/08/20 01:15:52;;;;;;;0.10;0.00;;;;;;;23.88;70.70;97897.59;5058422;28;20044;-74
2023/08/20 01:18:21;;;;;;;0.10;0.10;;;;;;;23.88;71.42;97905.00;5062144;28;20059;-74
2023/08/20 01:20:58;;;;;;;0.00;0.00;;;;;;;23.90;71.14;97908.22;5061327;28;20516;-74
2023/08/20 01:23:55;;;;;;;0.20;0.20;;;;;;;23.81;71.57;97901.69;5075710;22;20684;-70
2023/08/20 01:26:37;;;;;;;0.00;0.00;;;;;;;23.66;72.04;97903.34;5050063;28;20045;-70
2023/08/20 01:29:06;;;;;;;0.10;0.10;;;;;;;23.60;72.06;97914.50;5050026;28;20087;-71
2023/08/20 01:31:34;;;;;;;0.03;0.03;;;;;;;23.60;71.96;97907.13;5050271;28;20470;-72
2023/08/20 01:34:02;;;;;;;0.10;0.10;;;;;;;23.55;72.64;97912.59;5029768;28;20132;-72
2023/08/20 01:36:31;;;;;;;0.10;0.10;;;;;;;23.59;71.97;97908.22;5042057;28;20047;-71
2023/08/20 01:38:58;;;;;;;0.00;0.00;;;;;;;23.63;71.96;97908.50;5040534;28;20120;-71
2023/08/20 01:41:26;;;;;;;0.10;0.10;;;;;;;23.60;72.55;97911.75;5032028;28;20053;-70
2023/08/20 01:43:54;;;;;;;0.10;0.10;;;;;;;23.54;72.60;97910.94;5023095;28;20045;-71
2023/08/20 01:46:23;;;;;;;0.10;0.10;;;;;;;23.48;72.83;97914.72;5041859;28;20116;-72
2023/08/20 01:48:51;;;;;;;0.00;0.00;;;;;;;23.42;72.83;97922.06;5024741;28;20076;-71
2023/08/20 01:51:19;;;;;;;0.00;0.00;;;;;;;23.40;73.18;97921.50;5024591;28;20045;-70
2023/08/20 01:53:46;;;;;;;0.03;0.03;;;;;;;23.40;73.53;97921.50;5023529;28;20102;-71
2023/08/20 01:56:14;;;;;;;0.00;0.00;;;;;;;23.44;73.63;97929.97;5022109;28;20494;-72
2023/08/20 01:58:42;;;;;;;0.30;0.30;;;;;;;23.48;73.66;97928.34;5022688;28;20468;-71
2023/08/20 02:01:10;;;;;;;0.03;0.03;;;;;;;23.35;73.68;97924.25;5022775;28;20501;-71
2023/08/20 02:03:39;;;;;;;0.00;0.00;;;;;;;23.30;74.03;97918.75;5041433;28;20037;-71
2023/08/20 02:06:07;;;;;;;0.05;0.03;;;;;;;23.44;73.39;97921.81;5022603;28;20060;-71
2023/08/20 02:08:35;;;;;;;0.10;0.10;;;;;;;23.54;73.47;97926.47;5041924;28;20036;-71
2023/08/20 02:11:04;;;;;;;0.10;0.10;;;;;;;23.58;73.01;97917.47;5023208;28;20044;-71
2023/08/20 02:13:32;;;;;;;0.10;0.10;;;;;;;23.53;73.20;97925.66;5024822;28;20061;-71
2023/08/20 02:16:01;;;;;;;0.10;0.00;;;;;;;23.51;73.36;97922.38;5026494;28;20505;-73
2023/08/20 02:18:29;;;;;;;0.08;0.08;;;;;;;23.59;72.67;97919.13;5042410;28;20390;-71
2023/08/20 02:20:58;;;;;;;0.10;0.10;;;;;;;23.47;73.29;97920.41;5043921;28;20502;-70
2023/08/20 02:23:26;;;;;;;0.10;0.10;;;;;;;23.46;73.22;97927.81;5046342;28;20037;-71
2023/08/20 02:25:53;;;;;;;0.10;0.10;;;;;;;23.37;73.39;97937.56;5045892;28;20037;-72
2023/08/20 02:28:21;;;;;;;0.10;0.10;;;;;;;23.42;73.15;97926.69;5043229;28;20038;-71
2023/08/20 02:30:51;;;;;;;0.10;0.10;;;;;;;23.63;72.84;97942.03;5023917;28;20041;-72
2023/08/20 02:33:18;;;;;;;0.00;0.00;;;;;;;23.47;73.25;97940.31;5040115;28;20394;-71
2023/08/20 02:35:46;;;;;;;0.03;0.03;;;;;;;23.46;73.55;97941.44;5023699;28;20053;-71
2023/08/20 02:38:15;;;;;;;0.00;0.00;;;;;;;23.57;72.99;97937.66;5023265;28;20057;-71
2023/08/20 02:40:43;;;;;;;0.00;0.00;;;;;;;23.52;73.50;97942.28;5023446;28;20053;-71
2023/08/20 02:43:12;;;;;;;0.10;0.10;;;;;;;23.45;73.91;97942.50;5040749;28;20127;-71
2023/08/20 02:45:41;;;;;;;0.10;0.10;;;;;;;23.36;73.57;97942.19;5040596;28;20051;-71
2023/08/20 02:48:10;;;;;;;0.05;0.00;;;;;;;23.41;73.65;97941.41;5039796;28;20123;-71
2023/08/20 02:50:38;;;;;;;0.00;0.00;;;;;;;23.39;73.64;97944.41;5023538;28;20151;-70
2023/08/20 02:53:06;;;;;;;0.10;0.10;;;;;;;23.40;73.77;97940.59;5022940;28;20107;-72
2023/08/20 02:55:35;;;;;;;0.10;0.10;;;;;;;23.31;74.45;97944.09;5022662;28;20052;-70
2023/08/20 02:58:04;;;;;;;0.20;0.10;;;;;;;23.27;74.49;97940.25;5039053;28;20502;-72
2023/08/20 03:00:32;;;;;;;0.20;0.10;;;;;;;23.16;75.30;97931.22;5040395;28;20128;-72
2023/08/20 03:03:02;;;;;;;0.08;0.08;;;;;;;23.05;75.63;97945.91;5037950;28;20041;-71
2023/08/20 03:05:30;;;;;;;0.10;0.10;;;;;;;23.10;75.95;97939.66;5021941;28;20516;-70
2023/08/20 03:07:57;;;;;;;0.10;0.10;;;;;;;23.04;75.87;97947.00;5041120;28;20116;-71
2023/08/20 03:10:27;;;;;;;0.05;0.05;;;;;;;23.08;76.27;97945.38;5022069;28;20048;-71
2023/08/20 03:12:56;;;;;;;0.10;0.10;;;;;;;23.16;75.69;97949.47;5022062;28;20044;-71
2023/08/20 03:15:24;;;;;;;0.00;0.00;;;;;;;23.24;75.29;97949.00;5022441;28;20045;-71
2023/08/20 03:17:51;;;;;;;0.00;0.00;;;;;;;23.16;75.43;97941.31;5022599;28;20072;-71
2023/08/20 03:20:19;;;;;;;0.00;0.00;;;;;;;23.21;75.07;97954.97;5020493;28;20045;-72
2023/08/20 03:22:47;;;;;;;0.10;0.10;;;;;;;23.26;75.20;97955.78;5039962;28;20132;-71
2023/08/20 03:25:14;;;;;;;0.00;0.00;;;;;;;23.27;74.93;97957.44;5021509;28;20106;-71
2023/08/20 03:27:42;;;;;;;0.10;0.10;;;;;;;23.29;74.83;97955.25;5022541;28;20135;-71
2023/08/20 03:30:13;;;;;;;0.03;0.03;;;;;;;23.27;75.22;97964.78;5022227;28;20059;-70
2023/08/20 03:32:43;;;;;;;0.10;0.10;;;;;;;23.23;75.35;97967.25;5022408;28;20048;-71
2023/08/20 03:35:11;;;;;;;0.00;0.00;;;;;;;23.13;75.58;97971.81;5039525;28;20094;-71
2023/08/20 03:37:39;;;;;;;0.08;0.05;;;;;;;23.16;75.49;97969.38;5021501;28;20053;-71
2023/08/20 03:40:07;;;;;;;0.00;0.00;;;;;;;23.20;75.22;97973.22;5022021;28;20079;-71
2023/08/20 03:42:35;;;;;;;0.00;0.00;;;;;;;23.24;74.95;97973.50;5022213;28;20056;-70
2023/08/20 03:45:04;;;;;;;0.05;0.05;;;;;;;23.24;74.21;97974.31;5039201;28;20106;-71
2023/08/20 03:47:33;;;;;;;0.10;0.10;;;;;;;23.25;74.79;97972.44;5038548;28;20049;-70
2023/08/20 03:50:02;;;;;;;0.10;0.10;;;;;;;23.23;74.98;97971.88;5020432;28;20088;-70
2023/08/20 03:52:31;;;;;;;0.10;0.10;;;;;;;23.20;74.69;97967.75;5021944;28;20084;-71
2023/08/20 03:54:58;;;;;;;0.10;0.10;;;;;;;23.11;75.43;97984.88;5020948;28;20541;-70
2023/08/20 03:57:26;;;;;;;0.10;0.10;;;;;;;23.03;75.58;97972.59;5022492;28;20140;-69
2023/08/20 03:59:54;;;;;;;0.00;0.00;;;;;;;23.00;75.33;97971.22;5038891;28;20055;-70
2023/08/20 04:02:21;;;;;;;0.20;0.20;;;;;;;22.98;75.68;97967.94;5021656;28;20476;-70
2023/08/20 04:04:50;;;;;;;0.05;0.05;;;;;;;23.00;75.58;97981.28;5037110;28;20052;-70
2023/08/20 04:07:18;;;;;;;0.00;0.00;;;;;;;23.04;75.37;97980.50;5025008;28;20041;-70
2023/08/20 04:09:46;;;;;;;0.10;0.10;;;;;;;23.01;75.56;97988.38;5025953;28;20059;-70
2023/08/20 04:12:14;;;;;;;0.08;0.08;;;;;;;22.92;76.06;97992.69;5025177;28;20053;-70
2023/08/20 04:14:42;;;;;;;0.10;0.10;;;;;;;22.94;76.36;97996.81;5042431;28;20605;-70
2023/08/20 04:17:09;;;;;;;0.10;0.10;;;;;;;22.90;76.46;97995.69;5022553;28;20053;-69
2023/08/20 04:19:37;;;;;;;0.10;0.10;;;;;;;22.93;76.56;97999.78;5044000;28;20041;-69
2023/08/20 04:22:06;;;;;;;0.10;0.10;;;;;;;22.99;76.17;97998.72;5024528;28;20059;-69
2023/08/20 04:24:34;;;;;;;0.05;0.05;;;;;;;22.94;76.46;98001.44;5024007;28;20052;-70
2023/08/20 04:27:02;;;;;;;0.03;0.03;;;;;;;22.85;76.55;98005.69;5043410;28;20037;-70
2023/08/20 04:29:29;;;;;;;0.10;0.10;;;;;;;22.80;76.38;98009.22;5032563;28;20072;-70
2023/08/20 04:31:57;;;;;;;0.10;0.10;;;;;;;22.73;76.76;98013.25;5043675;28;20038;-69
2023/08/20 04:34:25;;;;;;;0.00;0.00;;;;;;;22.74;76.63;98007.50;5024970;28;20130;-70
2023/08/20 04:36:54;;;;;;;0.00;0.00;;;;;;;22.70;77.45;98000.97;5025793;28;20158;-69
2023/08/20 04:39:23;;;;;;;0.10;0.10;;;;;;;22.74;76.90;98004.78;5044288;28;20115;-69
2023/08/20 04:41:53;;;;;;;0.03;0.03;;;;;;;22.68;77.48;98003.13;5026733;28;20116;-70
2023/08/20 04:44:22;;;;;;;0.10;0.10;;;;;;;22.66;77.69;98008.81;5026277;28;20060;-69
2023/08/20 04:46:50;;;;;;;0.10;0.10;;;;;;;22.69;77.25;98012.94;5025609;28;20051;-70
2023/08/20 04:49:18;;;;;;;0.10;0.10;;;;;;;22.61;77.88;98008.81;5026289;28;20746;-69
2023/08/20 04:51:46;;;;;;;0.10;0.10;;;;;;;22.69;77.97;98015.66;5024523;28;20486;-70
2023/08/20 04:54:14;;;;;;;0.00;0.00;;;;;;;22.78;77.60;98016.84;5025847;28;20081;-70
2023/08/20 04:56:43;;;;;;;0.05;0.05;;;;;;;22.80;77.54;98017.41;5042436;28;20052;-70
2023/08/20 04:59:11;;;;;;;0.10;0.10;;;;;;;22.77;77.98;98015.19;5025594;28;20135;-69
2023/08/20 05:01:51;;;;;;;0.00;0.00;;;;;;;22.72;78.10;98017.88;5042439;28;20053;-69
2023/08/20 05:04:27;;;;;;;0.10;0.10;;;;;;;22.77;78.02;98015.19;5025133;28;20672;-69
2023/08/20 05:06:55;;;;;;;0.10;0.10;;;;;;;22.85;77.59;98019.31;5023104;28;20136;-69
2023/08/20 05:09:23;;;;;;;0.10;0.10;;;;;;;22.91;77.01;98019.09;5024678;28;20493;-69
2023/08/20 05:11:51;;;;;;;0.00;0.00;;;;;;;22.97;76.67;98025.38;5042012;28;20049;-70
2023/08/20 05:14:20;;;;;;;0.05;0.05;;;;;;;23.03;76.77;98018.91;5042574;28;20025;-70
2023/08/20 05:16:48;;;;;;;0.10;0.10;;;;;;;23.08;76.71;98023.53;5040880;28;20060;-69
2023/08/20 05:19:16;;;;;;;0.00;0.00;;;;;;;23.09;76.32;98025.19;5041258;28;20144;-70
2023/08/20 05:21:43;;;;;;;0.10;0.10;;;;;;;23.09;76.59;98019.72;5024899;28;20738;-69
2023/08/20 05:24:11;;;;;;;0.10;0.10;;;;;;;23.00;77.34;98024.88;5041196;28;20498;-69
2023/08/20 05:26:40;;;;;;;0.00;0.00;;;;;;;23.12;76.83;98030.09;5024224;28;20128;-69
2023/08/20 05:29:09;;;;;;;0.05;0.00;;;;;;;23.20;76.30;98029.59;5023355;28;20413;-69
2023/08/20 05:31:36;;;;;;;0.00;0.00;;;;;;;23.23;76.50;98021.72;5025089;28;20045;-69
2023/08/20 05:34:04;;;;;;;0.10;0.10;;;;;;;23.25;76.93;98024.19;5024755;28;20041;-70
2023/08/20 05:36:32;;;;;;;0.00;0.00;;;;;;;23.27;76.95;98028.25;5024060;28;20053;-69
2023/08/20 05:39:00;;;;;;;0.20;0.20;;;;;;;23.30;76.69;98018.75;5023909;28;20445;-69
2023/08/20 05:41:28;;;;;;;0.00;0.00;;;;;;;23.32;76.97;98022.84;5023864;28;20060;-70
2023/08/20 05:43:56;;;;;;;0.10;0.10;;;;;;;23.35;76.59;98019.59;5024417;28;20118;-70
2023/08/20 05:46:27;;;;;;;0.10;0.10;;;;;;;23.35;77.03;98016.88;5023480;28;20565;-70
2023/08/20 05:48:55;;;;;;;0.00;0.00;;;;;;;23.35;77.16;98018.78;5040813;28;20045;-70
2023/08/20 05:51:23;;;;;;;0.03;0.03;;;;;;;23.39;76.58;98026.13;5023637;28;20058;-70
2023/08/20 05:53:50;;;;;;;0.10;0.10;;;;;;;23.41;76.62;98021.25;5024640;28;20132;-70
2023/08/20 05:56:19;;;;;;;0.20;0.20;;;;;;;23.43;76.80;98021.81;5023810;28;20523;-70
2023/08/20 05:58:47;;;;;;;0.10;0.10;;;;;;;23.46;76.34;98020.47;5039593;28;20669;-70
2023/08/20 06:01:15;;;;;;;0.00;0.00;;;;;;;23.47;77.04;98023.97;5023569;28;20073;-70
2023/08/20 06:03:45;;;;;;;0.05;0.05;;;;;;;23.48;76.67;98010.09;5023909;28;20041;-70
2023/08/20 06:06:13;;;;;;;0.10;0.10;;;;;;;23.50;76.59;98015.31;5041013;28;20046;-70
2023/08/20 06:08:40;;;;;;;0.10;0.10;;;;;;;23.51;76.94;98015.03;5041292;28;20036;-70
2023/08/20 06:11:21;;;;;;;0.10;0.10;;;;;;;23.45;77.46;98028.91;5042084;28;20505;-70
2023/08/20 06:13:49;;;;;;;0.08;0.08;;;;;;;23.46;77.39;98028.63;5042018;28;20726;-69
2023/08/20 06:16:17;;;;;;;0.10;0.10;;;;;;;23.42;77.77;98022.88;5041028;28;20041;-70
2023/08/20 06:18:46;;;;;;;0.10;0.10;;;;;;;23.51;76.79;98028.69;5039730;28;20076;-72
2023/08/20 06:21:13;;;;;;;0.10;0.10;;;;;;;23.56;76.49;98027.88;5040695;28;20055;-70
2023/08/20 06:23:41;;;;;;;0.10;0.10;;;;;;;23.58;76.37;98031.13;5041818;28;20076;-70
2023/08/20 06:26:11;;;;;;;0.10;0.10;;;;;;;23.60;76.41;98037.16;5042798;28;20037;-69
2023/08/20 06:28:39;;;;;;;0.10;0.10;;;;;;;23.61;75.77;98042.34;5040626;28;20128;-69
2023/08/20 06:31:07;;;;;;;0.10;0.10;;;;;;;23.68;75.57;98042.91;5041185;28;20081;-69
2023/08/20 06:33:34;;;;;;;0.10;0.10;;;;;;;23.74;75.39;98046.47;5040964;28;20064;-70
2023/08/20 06:36:04;;;;;;;0.10;0.10;;;;;;;23.77;75.59;98044.00;5042232;28;20069;-70
2023/08/20 06:38:31;;;;;;;0.20;0.20;;;;;;;23.78;75.07;98045.66;5040621;28;20041;-69
2023/08/20 06:40:59;;;;;;;0.10;0.10;;;;;;;23.77;75.29;98052.19;5041262;28;20055;-69
2023/08/20 06:43:27;;;;;;;0.05;0.05;;;;;;;23.78;75.24;98048.38;5040819;28;20500;-70
2023/08/20 06:45:54;;;;;;;0.10;0.10;;;;;;;23.83;75.02;98035.84;5040889;28;20037;-69
2023/08/20 06:48:24;;;;;;;0.08;0.08;;;;;;;23.85;75.06;98042.69;5040606;28;20053;-69
2023/08/20 06:50:52;;;;;;;0.10;0.10;;;;;;;23.87;75.14;98043.25;5039472;28;20038;-69
2023/08/20 06:53:21;;;;;;;0.10;0.10;;;;;;;23.88;75.29;98044.84;5041467;28;20421;-70
2023/08/20 06:55:49;;;;;;;0.00;0.00;;;;;;;23.85;75.26;98045.41;5039564;28;20051;-70
2023/08/20 06:58:17;;;;;;;0.20;0.10;;;;;;;23.77;75.30;98054.13;5040494;28;20065;-69
2023/08/20 07:00:52;;;;;;;0.10;0.10;;;;;;;23.86;74.72;98044.34;5147456;27;20407;-70
2023/08/20 07:03:20;;;;;;;0.00;0.00;;;;;;;23.91;74.89;98052.50;5143551;27;20043;-70
2023/08/20 07:05:48;;;;;;;0.08;0.08;;;;;;;24.00;74.75;98052.78;5126379;27;20051;-70
2023/08/20 07:08:16;;;;;;;0.03;0.03;;;;;;;24.11;74.51;98054.47;5125557;28;20375;-72
2023/08/20 07:10:44;;;;;;;0.20;0.20;;;;;;;24.17;74.24;98055.31;5128062;27;20122;-70
2023/08/20 07:13:11;;;;;;;0.03;0.03;;;;;;;24.20;74.26;98052.00;5124638;28;20046;-70
2023/08/20 07:15:39;;;;;;;0.10;0.10;;;;;;;24.19;74.49;98053.13;5126682;27;20036;-69
2023/08/20 07:18:08;;;;;;;0.20;0.20;;;;;;;24.18;73.92;98057.75;5125810;27;20047;-69
2023/08/20 07:20:36;;;;;;;0.10;0.10;;;;;;;24.09;73.96;98053.91;5123948;27;20039;-69
2023/08/20 07:23:04;;;;;;;0.00;0.00;;;;;;;24.08;74.15;98060.47;5124371;27;20051;-70
2023/08/20 07:25:32;;;;;;;0.10;0.10;;;;;;;24.10;74.37;98066.47;5127254;27;20515;-68
2023/08/20 07:28:00;;;;;;;0.00;0.00;;;;;;;24.03;74.02;98060.44;5125012;28;20455;-68
2023/08/20 07:30:27;;;;;;;0.10;0.10;;;;;;;24.07;74.51;98064.28;5126129;28;20065;-68
2023/08/20 07:32:55;;;;;;;0.10;0.10;;;;;;;24.08;74.41;98057.75;5125414;27;20070;-69
2023/08/20 07:35:24;;;;;;;0.10;0.10;;;;;;;24.14;73.92;98062.09;5125165;27;20509;-69
2023/08/20 07:37:52;;;;;;;0.08;0.08;;;;;;;24.22;73.82;98064.31;5126494;28;20043;-68
2023/08/20 07:40:20;;;;;;;0.10;0.10;;;;;;;24.21;74.08;98064.56;5126835;28;20084;-68
2023/08/20 07:42:48;;;;;;;0.10;0.10;;;;;;;24.38;73.27;98068.72;5123665;28;20073;-68
2023/08/20 07:45:16;;;;;;;0.10;0.10;;;;;;;24.46;73.17;98070.09;5125382;27;20044;-69
2023/08/20 07:47:44;;;;;;;0.10;0.10;;;;;;;24.50;72.74;98071.19;5125534;28;20428;-68
2023/08/20 07:50:12;;;;;;;0.10;0.10;;;;;;;24.58;72.84;98062.47;5122807;27;20093;-69
2023/08/20 07:52:41;;;;;;;0.00;0.00;;;;;;;24.64;72.63;98064.06;5125882;28;20447;-69
2023/08/20 07:55:09;;;;;;;0.10;0.10;;;;;;;24.76;72.01;98070.09;5125015;27;20069;-69
2023/08/20 07:57:37;;;;;;;0.00;0.00;;;;;;;24.85;71.57;98078.53;5125787;27;20047;-68
2023/08/20 08:00:06;;;;;;;0.00;0.00;;;;;;;24.88;71.50;98075.25;5124631;27;20474;-68
2023/08/20 08:02:37;;;;;;;0.03;0.03;;;;;;;24.91;71.52;98077.47;5126190;27;20042;-70
2023/08/20 08:05:06;;;;;;;0.10;0.10;;;;;;;24.89;71.76;98063.25;5122730;27;20061;-69
2023/08/20 08:07:34;;;;;;;0.08;0.08;;;;;;;25.02;71.06;98056.44;5125734;27;20043;-68
2023/08/20 08:10:04;;;;;;;0.03;0.03;;;;;;;25.14;70.77;98062.41;5125351;28;20047;-69
2023/08/20 08:12:32;;;;;;;0.10;0.10;;;;;;;25.30;70.16;98069.47;5110931;28;20122;-69
2023/08/20 08:14:59;;;;;;;0.10;0.10;;;;;;;25.42;69.58;98064.53;5110219;28;20665;-69
2023/08/20 08:17:27;;;;;;;0.00;0.00;;;;;;;25.54;69.54;98065.00;5111350;28;20039;-69
2023/08/20 08:19:55;;;;;;;0.10;0.10;;;;;;;25.67;68.82;98054.59;5108101;28;20051;-68
2023/08/20 08:22:23;;;;;;;0.10;0.10;;;;;;;25.69;68.15;98066.88;5112132;27;20066;-69
2023/08/20 08:24:50;;;;;;;0.10;0.10;;;;;;;25.71;68.26;98072.91;5110608;28;20040;-69
2023/08/20 08:27:19;;;;;;;0.10;0.10;;;;;;;25.77;68.43;98068.22;5112543;28;20114;-69
2023/08/20 08:29:48;;;;;;;0.00;0.00;;;;;;;25.92;67.50;98065.41;5112255;28;20040;-69
2023/08/20 08:32:16;;;;;;;0.10;0.10;;;;;;;26.06;67.32;98073.81;5113373;28;20047;-69
2023/08/20 08:34:43;;;;;;;0.10;0.10;;;;;;;26.26;67.22;98073.69;5112149;28;20060;-69
2023/08/20 08:37:11;;;;;;;0.10;0.10;;;;;;;26.36;66.11;98068.19;5111406;27;20082;-69
2023/08/20 08:39:39;;;;;;;0.00;0.00;;;;;;;26.44;65.48;98067.56;5111845;28;20047;-69
2023/08/20 08:42:07;;;;;;;0.00;0.00;;;;;;;26.45;65.59;98082.91;5113011;28;20535;-69
2023/08/20 08:44:37;;;;;;;0.10;0.10;;;;;;;26.56;65.48;98081.72;5111530;27;20050;-69
2023/08/20 08:47:06;;;;;;;0.13;0.13;;;;;;;26.79;65.26;98082.88;5110292;28;20047;-69
2023/08/20 08:49:34;;;;;;;0.00;0.00;;;;;;;27.02;64.00;98095.84;5108393;28;20036;-69
2023/08/20 08:52:02;;;;;;;0.05;0.05;;;;;;;27.23;63.30;98088.25;5094272;28;20047;-69
2023/08/20 08:54:30;;;;;;;0.00;0.00;;;;;;;27.30;62.16;98085.19;5111739;28;20044;-69
2023/08/20 08:56:58;;;;;;;0.00;0.00;;;;;;;27.09;62.57;98098.28;5111770;28;20043;-69
2023/08/20 08:59:26;;;;;;;0.00;0.00;;;;;;;27.33;62.46;98103.78;5109169;28;20039;-69
2023/08/20 09:01:56;;;;;;;0.00;0.00;;;;;;;27.45;62.22;98095.16;5111072;27;20062;-69
2023/08/20 09:04:24;;;;;;;0.03;0.03;;;;;;;27.41;62.03;98098.47;5111245;28;20047;-69
2023/08/20 09:06:53;;;;;;;0.03;0.03;;;;;;;27.40;62.24;98099.59;5111352;28;20039;-69
2023/08/20 09:09:22;;;;;;;0.03;0.03;;;;;;;27.24;62.29;98102.78;5108199;28;20047;-69
2023/08/20 09:11:50;;;;;;;0.08;0.08;;;;;;;27.32;62.55;98105.69;5110345;28;20124;-69
2023/08/20 09:14:22;;;;;;;0.00;0.00;;;;;;;27.21;62.97;98108.81;5109584;27;20044;-69
2023/08/20 09:16:57;;;;;;;0.00;0.00;;;;;;;27.14;63.37;98105.63;5108606;27;20075;-69
2023/08/20 09:19:24;;;;;;;0.10;0.10;;;;;;;27.13;63.46;98113.03;5109529;27;20039;-70
2023/08/20 09:21:53;;;;;;;0.05;0.05;;;;;;;26.98;63.91;98110.44;5106808;27;20154;-70
2023/08/20 09:24:27;;;;;;;0.00;0.00;;;;;;;26.93;64.02;98110.47;5108867;27;20071;-71
2023/08/20 09:26:58;;;;;;;0.10;0.10;;;;;;;27.03;63.90;98111.19;5107479;28;20066;-70
2023/08/20 09:29:26;;;;;;;0.10;0.10;;;;;;;27.15;63.38;98112.75;5109454;28;20047;-71
2023/08/20 09:32:03;;;;;;;0.05;0.05;;;;;;;27.15;63.28;98118.22;5110784;28;20522;-70
2023/08/20 09:34:39;;;;;;;0.10;0.10;;;;;;;26.98;62.85;98124.16;5109760;27;20114;-70
2023/08/20 09:37:09;;;;;;;0.10;0.10;;;;;;;27.03;62.74;98113.94;5111396;28;20116;-70
2023/08/20 09:39:37;;;;;;;0.10;0.10;;;;;;;27.02;62.99;98116.97;5107073;28;20070;-68
2023/08/20 09:42:06;;;;;;;0.10;0.10;;;;;;;27.03;63.15;98116.69;5110875;28;20044;-69
2023/08/20 09:44:36;;;;;;;0.00;0.00;;;;;;;27.12;62.76;98121.53;5109572;28;20140;-69
2023/08/20 09:47:07;;;;;;;0.03;0.03;;;;;;;27.29;62.61;98124.66;5091687;28;20138;-69
2023/08/20 09:49:38;;;;;;;0.00;0.00;;;;;;;27.39;62.18;98121.81;5109798;28;20032;-69
2023/08/20 09:52:07;;;;;;;0.10;0.10;;;;;;;27.18;62.01;98125.88;5109982;28;20039;-69
2023/08/20 09:55:01;;;;;;;0.00;0.00;;;;;;;27.05;62.82;98127.38;5111117;28;20070;-69
2023/08/20 09:57:33;;;;;;;0.10;0.10;;;;;;;26.98;62.37;98126.88;5109404;28;20043;-69
2023/08/20 10:00:05;;;;;;;0.05;0.05;;;;;;;27.08;62.79;98128.72;5108308;27;20043;-70
2023/08/20 10:02:41;;;;;;;0.00;0.00;;;;;;;27.23;62.52;98115.66;5109429;27;20062;-69
2023/08/20 10:05:10;;;;;;;0.00;0.00;;;;;;;27.38;61.91;98117.44;5110073;28;20112;-69
2023/08/20 10:07:39;;;;;;;0.10;0.00;;;;;;;27.32;61.83;98124.88;5110622;28;20044;-69
2023/08/20 10:10:09;;;;;;;0.00;0.00;;;;;;;27.30;62.17;98129.06;5107653;28;20066;-69
2023/08/20 10:12:38;;;;;;;0.05;0.05;;;;;;;27.41;61.92;98117.66;5109792;28;20120;-69
2023/08/20 10:15:09;;;;;;;0.00;0.00;;;;;;;27.61;61.24;98107.63;5109801;28;20044;-68
2023/08/20 10:17:38;;;;;;;0.00;0.00;;;;;;;27.74;60.94;98109.63;5108554;28;20046;-68
2023/08/20 10:20:10;;;;;;;0.10;0.10;;;;;;;27.69;61.00;98107.78;5109207;28;20495;-69
2023/08/20 10:22:38;;;;;;;0.00;0.00;;;;;;;27.85;60.68;98097.44;5107745;27;20400;-68
2023/08/20 10:25:07;;;;;;;0.00;0.00;;;;;;;28.09;60.03;98094.66;5108745;28;20051;-68
2023/08/20 10:27:36;;;;;;;0.00;0.00;;;;;;;27.92;59.95;98097.91;5109184;28;20127;-69
2023/08/20 10:30:11;;;;;;;0.00;0.00;;;;;;;28.09;60.05;98095.47;5109062;28;20044;-68
2023/08/20 10:32:46;;;;;;;0.00;0.00;;;;;;;27.94;60.72;98092.91;5108566;28;20050;-68
2023/08/20 10:35:16;;;;;;;0.10;0.10;;;;;;;28.12;59.72;98091.31;5109002;27;20048;-69
2023/08/20 10:38:04;;;;;;;0.00;0.00;;;;;;;28.31;59.70;98092.16;5109665;28;20530;-68
2023/08/20 10:40:48;;;;;;;0.00;0.00;;;;;;;28.31;59.30;98094.09;5108163;27;20185;-69
2023/08/20 10:43:27;;;;;;;0.20;0.20;;;;;;;28.57;58.75;98089.00;5109490;28;20130;-69
2023/08/20 10:46:09;;;;;;;0.05;0.05;;;;;;;28.84;58.32;98087.22;5108409;28;20044;-69
2023/08/20 10:48:39;;;;;;;0.10;0.03;;;;;;;29.09;57.20;98076.88;5108712;28;20059;-69
2023/08/20 10:51:10;;;;;;;0.03;0.03;;;;;;;29.08;57.03;98078.81;5109210;28;20059;-69
2023/08/20 10:53:38;;;;;;;0.00;0.00;;;;;;;29.08;57.01;98072.50;5110635;28;20043;-69
2023/08/20 10:56:10;;;;;;;0.00;0.00;;;;;;;29.23;56.12;98072.22;5107836;28;20044;-69
2023/08/20 10:58:40;;;;;;;0.00;0.00;;;;;;;29.42;55.96;98070.22;5108735;28;20085;-69
2023/08/20 11:01:21;;;;;;;0.03;0.03;;;;;;;28.87;56.83;98071.22;5109922;28;20390;-69
2023/08/20 11:03:50;;;;;;;0.00;0.00;;;;;;;29.15;57.22;98072.94;5108474;28;20540;-69
2023/08/20 11:06:19;;;;;;;0.10;0.10;;;;;;;29.41;56.04;98067.78;5104432;28;20469;-69
2023/08/20 11:08:47;;;;;;;0.43;0.10;;;;;;;29.41;56.14;98062.28;5107676;28;20048;-69
2023/08/20 11:11:15;;;;;;;0.00;0.00;;;;;;;29.71;55.51;98063.59;5109853;28;20040;-69
2023/08/20 11:13:42;;;;;;;0.00;0.00;;;;;;;29.26;56.55;98068.88;5109339;28;20052;-69
2023/08/20 11:16:10;;;;;;;0.00;0.00;;;;;;;29.69;55.71;98058.41;5107687;28;20066;-69
2023/08/20 11:18:38;;;;;;;0.10;0.10;;;;;;;29.75;54.93;98059.13;5107909;28;20127;-69
2023/08/20 11:21:06;;;;;;;0.10;0.10;;;;;;;30.02;54.57;98050.81;5107169;28;20044;-69
2023/08/20 11:23:36;;;;;;;0.00;0.00;;;;;;;30.04;53.65;98051.34;5107018;28;20047;-69
2023/08/20 11:26:03;;;;;;;0.00;0.00;;;;;;;30.29;54.18;98048.00;5106902;28;20051;-69
2023/08/20 11:28:31;;;;;;;0.08;0.08;;;;;;;30.52;52.66;98051.63;5107192;28;20036;-69
2023/08/20 11:30:59;;;;;;;0.10;0.10;;;;;;;30.72;52.48;98057.75;5106172;28;20047;-69
2023/08/20 11:33:27;;;;;;;0.00;0.00;;;;;;;30.17;52.98;98046.91;5105681;28;20048;-69
2023/08/20 11:35:55;;;;;;;0.00;0.00;;;;;;;30.12;53.86;98052.53;5104248;28;20050;-69
2023/08/20 11:38:24;;;;;;;0.10;0.10;;;;;;;30.59;52.45;98051.19;5106100;28;20051;-69
2023/08/20 11:40:53;;;;;;;0.00;0.00;;;;;;;30.39;53.08;98054.41;5103443;28;20115;-69
2023/08/20 11:43:22;;;;;;;0.10;0.10;;;;;;;30.77;51.89;98054.84;5105940;28;20040;-69